In Rescue
 
Open Full Screen Window  High Contrast Mode
Wind Gusting 00 knots
06
January 17, 2021 1:00 PM CST
Present Weather: Mist
Weather Information
Wind Direction
  320 °
Wind Speed
  06 kt (7 mph)
Wind Gust
  00 kt (0 mph)
Altimeter
29.76 in
Visibility
5 SM
Temperature
-05° C
23° F
Dewpoint
-07° C
19° F
Humidity
86%
1hr Rain Fall
00.00 in.
24hr Rain Fall
00.00 in.
Sky Condition
Overcast @ 900 ft
IFR

METAR K14Y 171900Z AUTO 32006KT 5SM BR OVC009 M05/M07 A2976 RMK AO2

FAA Disclaimer: The data displayed is for advisory purposes only and is not to be used for flight planning or operations.